Terminal Aerodrome Forecast
Issued by NWS La Crosse, WI

Home | Current Version | Previous Version | Text Only | Print | Product List | Glossary On
Versions: 1 2 3 4 5 6 7 8 9 10 11 12 13 14 15 16 17 18 19 20 21 22
000
FTUS43 KARX 292330
TAFRST
TAF
KRST 292330Z 3000/3024 02005KT P6SM BKN040
     FM301000 VRB03KT 4SM BR SCT025
     FM301300 07005KT P6SM SCT040
     FM301700 09005KT P6SM BKN040=

USA.gov is the U.S. government's official web portal to all federal, state and local government web resources and services.